Terminal Aerodrome Forecast
Issued by NWS Austin/San Antonio, TX

Home | Current Version | Previous Version | Text Only | Print | Product List | Glossary On
Versions: 1 2 3 4 5 6 7 8 9 10 11
433
FTUS44 KEWX 122344
TAFAUS
TAF
KAUS 122344Z 1300/1406 02006KT P6SM SKC
     FM131200 VRB03KT 5SM BR OVC012
     FM131400 03005KT 4SM BR OVC007
     FM131800 12009KT P6SM OVC015
     FM132100 14013KT P6SM OVC025=

USA.gov is the U.S. government's official web portal to all federal, state and local government web resources and services.